Terminal Aerodrome Forecast
Issued by NWS

Home | Current Version | Previous Version | Text Only | Print | Product List | Glossary On
Versions: 1 2 3 4 5 6 7 8 9 10 11 12 13 14 15 16 17 18 19 20 21 22 23 24 25 26
000
FTUS43 KILX 280526
TAFBMI
TAF
KBMI 280526Z 2806/2906 11005KT P6SM SCT045 OVC150
     FM281200 20005KT P6SM BKN020
     FM281500 27009KT P6SM VCTS SCT025CB BKN040
     FM281800 30011KT P6SM BKN045
     FM290100 29008KT P6SM SCT200=

USA.gov is the U.S. government's official web portal to all federal, state and local government web resources and services.